Autoridad de Aeronautica Civil de Panamá


metar




ESTACIONES DESCRIPCION
MPTO (M) 071000Z VRB02KT 9999 SCT018 25/24 Q1009 NOSIG=  
MPBO (M)  
MPCH (M)  
MPSA (M) 062100Z 23004KT 9000 VCSH SCT020TCU BKN080 32/23 Q1008 RMK TCU N/SE PCPN NE-SE  
MPCE (M) 062100Z 02008KT 9000 VCSH SCT012TCU BKN090 26/// Q1009 RMK TCU/PCPN SW/W/NW  
MPPN (M) 061500Z 04008KT 9000 SCT020 30/25 RMK HZ ALQDS  
MPSM (M) 062100Z 33008KT 9999 SCT015CB 48/// Q1010 RERA RWY WET RMK CB SE/SW-W  
MPJE (M)  
MPPA (M) 071100Z 02006KT 9999 FEW018 25/24 Q1009  
MPMG (M) 062300Z 33014KT 9000 FEW016 30/24 Q1009 NOSIG RMK HZ ALQDS BIRD HAZARD SE/S  
MPDA (M) 062100Z 20005KT 9999 SCT015CB BKN080 29/25 Q1010 RMK CB W  
MPVR (M) 061500Z 04014KT(E) 9000 SCT020TCU SCT100 RMK TCU SW-S HZ ALQDS=  
MPWN FUERA DE SERVICIO  
MPOA (M)  
MPMF (M) =  
MPEJ (M) 061500Z 02006KT 9000 SCT020TCU 30/27 Q1014 RMK HZ ALQDS TCU S  


 

CLIMATICAS

MPTO

JULIO 2020

 

PCPN (mm)

T° MAX

T° MIN

VIENTO MAX (KT)

HORA

VIENTO PREDOM (KT)

19.2

31.4

22.9

36016KT

161300Z

w06KT

 

 

CLIMATICAS

MPMG

05 - JULIO - 2020

PCPN (mm)

T° MAX

T° MIN

VIENTO MAX (KT)

HORA

VIENTO PREDOM (KT)

0.0

30.8

24.4

33014KT

2300Z

NNW

 



Contador: 21945